Time;durP1;ratioP1;P1;durP2;ratioP2;P2;SDS_P1;SDS_P2;PMS_P1;PMS_P2;Temp;Humidity;BMP_temperature;BMP_pressure;BME280_temperature;BME280_humidity;BME280_pressure;Samples;Min_cycle;Max_cycle;Signal;HPM_P1;HPM_P2
2023/05/29 00:00:42;;;;;;;;;;;;;;;16.25;100.00;99289.66;5051747;28;844;-63
2023/05/29 00:03:09;;;;;;;;;;;;;;;16.27;100.00;99290.75;5051694;28;828;-62
2023/05/29 00:05:36;;;;;;;;;;;;;;;16.34;100.00;99284.13;5051741;28;863;-62
2023/05/29 00:08:03;;;;;;;;;;;;;;;16.37;100.00;99286.03;5051665;28;921;-63
2023/05/29 00:10:31;;;;;;;;;;;;;;;16.41;100.00;99280.28;5051270;28;1232;-63
2023/05/29 00:12:57;;;;;;;;;;;;;;;16.42;100.00;99293.03;5051533;28;1969;-64
2023/05/29 00:15:24;;;;;;;;;;;;;;;16.42;100.00;99291.00;5051562;28;835;-62
2023/05/29 00:17:51;;;;;;;;;;;;;;;16.44;100.00;99288.53;5051584;28;837;-63
2023/05/29 00:20:18;;;;;;;;;;;;;;;16.43;100.00;99298.16;5033588;28;1185;-65
2023/05/29 00:22:46;;;;;;;;;;;;;;;16.43;100.00;99291.78;5051565;28;839;-63
2023/05/29 00:25:14;;;;;;;;;;;;;;;16.41;100.00;99283.09;5051387;28;886;-62
2023/05/29 00:27:57;;;;;;;;;;;;;;;16.39;100.00;99289.13;5051392;28;894;-61
2023/05/29 00:30:24;;;;;;;;;;;;;;;16.39;100.00;99288.38;5051417;28;911;-62
2023/05/29 00:32:52;;;;;;;;;;;;;;;16.37;100.00;99286.03;5051202;28;1947;-63
2023/05/29 00:35:18;;;;;;;;;;;;;;;16.34;100.00;99295.28;5051681;28;860;-64
2023/05/29 00:37:45;;;;;;;;;;;;;;;16.30;100.00;99297.44;5051605;28;903;-63
2023/05/29 00:40:13;;;;;;;;;;;;;;;16.32;100.00;99297.75;5051217;28;934;-63
2023/05/29 00:42:40;;;;;;;;;;;;;;;16.32;100.00;99306.91;5051235;28;812;-62
2023/05/29 00:45:07;;;;;;;;;;;;;;;16.32;100.00;99306.91;5051269;28;883;-62
2023/05/29 00:47:34;;;;;;;;;;;;;;;16.29;100.00;99312.63;5051189;28;866;-64
2023/05/29 00:50:02;;;;;;;;;;;;;;;16.29;100.00;99310.59;5051245;28;836;-61
2023/05/29 00:52:29;;;;;;;;;;;;;;;16.29;100.00;99318.19;5051141;28;1890;-63
2023/05/29 00:54:56;;;;;;;;;;;;;;;16.30;100.00;99314.16;5051035;28;881;-64
2023/05/29 00:57:23;;;;;;;;;;;;;;;16.32;100.00;99311.69;5051205;28;847;-62
2023/05/29 00:59:50;;;;;;;;;;;;;;;16.29;100.00;99318.97;5051079;28;832;-63
2023/05/29 01:02:18;;;;;;;;;;;;;;;16.27;100.00;99312.28;5051147;28;868;-63
2023/05/29 01:04:45;;;;;;;;;;;;;;;16.28;100.00;99306.25;5054232;28;820;-62
2023/05/29 01:07:13;;;;;;;;;;;;;;;16.27;100.00;99317.88;5055027;28;874;-62
2023/05/29 01:09:40;;;;;;;;;;;;;;;16.26;100.00;99317.09;5054944;28;1174;-63
2023/05/29 01:12:25;;;;;;;;;;;;;;;16.27;100.00;99320.66;5054920;28;1971;-64
2023/05/29 01:14:52;;;;;;;;;;;;;;;16.27;100.00;99310.28;5054952;28;839;-63
2023/05/29 01:17:27;;;;;;;;;;;;;;;16.27;100.00;99317.88;5055119;28;812;-63
2023/05/29 01:19:57;;;;;;;;;;;;;;;16.24;100.00;99319.56;5054821;28;804;-63
2023/05/29 01:22:31;;;;;;;;;;;;;;;16.22;100.00;99318.47;5055109;28;855;-63
2023/05/29 01:25:04;;;;;;;;;;;;;;;16.22;100.00;99315.66;5054725;28;875;-63
2023/05/29 01:27:30;;;;;;;;;;;;;;;16.21;100.00;99322.47;5054866;28;820;-62
2023/05/29 01:29:59;;;;;;;;;;;;;;;16.19;100.00;99322.91;5054603;28;891;-63
2023/05/29 01:32:25;;;;;;;;;;;;;;;16.18;100.00;99328.94;5054507;28;1961;-65
2023/05/29 01:34:52;;;;;;;;;;;;;;;16.21;100.00;99328.03;5054527;28;860;-62
2023/05/29 01:37:20;;;;;;;;;;;;;;;16.24;100.00;99318.78;5054525;28;875;-62
2023/05/29 01:39:47;;;;;;;;;;;;;;;16.25;100.00;99321.09;5054449;28;861;-62
2023/05/29 01:42:14;;;;;;;;;;;;;;;16.25;100.00;99321.09;5054403;28;848;-62
2023/05/29 01:44:41;;;;;;;;;;;;;;;16.22;100.00;99321.25;5054341;28;850;-63
2023/05/29 01:47:08;;;;;;;;;;;;;;;16.18;100.00;99326.94;5054297;28;840;-62
2023/05/29 01:49:37;;;;;;;;;;;;;;;16.14;100.00;99323.50;5036419;28;1283;-63
2023/05/29 01:52:04;;;;;;;;;;;;;;;16.10;100.00;99325.63;5054150;28;1889;-63
2023/05/29 01:54:31;;;;;;;;;;;;;;;16.15;100.00;99324.25;5054072;28;804;-63
2023/05/29 01:56:59;;;;;;;;;;;;;;;16.19;100.00;99330.50;5054038;28;793;-63
2023/05/29 01:59:27;;;;;;;;;;;;;;;16.24;100.00;99332.72;5054133;28;820;-62
2023/05/29 02:01:54;;;;;;;;;;;;;;;16.24;100.00;99327.91;5053944;28;880;-63
2023/05/29 02:04:21;;;;;;;;;;;;;;;16.25;100.00;99331.47;5054028;28;895;-62
2023/05/29 02:06:47;;;;;;;;;;;;;;;16.27;100.00;99326.22;5054012;28;824;-63
2023/05/29 02:09:16;;;;;;;;;;;;;;;16.29;100.00;99321.75;5053944;28;1420;-64
2023/05/29 02:11:45;;;;;;;;;;;;;;;16.30;100.00;99314.97;5053635;28;1270;-63
2023/05/29 02:14:12;;;;;;;;;;;;;;;16.31;100.00;99315.72;5054045;28;828;-63
2023/05/29 02:16:40;;;;;;;;;;;;;;;16.29;100.00;99318.19;5053111;28;851;-61
2023/05/29 02:19:09;;;;;;;;;;;;;;;16.29;100.00;99324.53;5053545;28;1114;-62
2023/05/29 02:21:39;;;;;;;;;;;;;;;16.28;100.00;99306.25;5053595;28;824;-62
2023/05/29 02:24:07;;;;;;;;;;;;;;;16.26;100.00;99307.97;5035615;28;1178;-63
2023/05/29 02:26:36;;;;;;;;;;;;;;;16.24;100.00;99302.06;5053623;28;1018;-63
2023/05/29 02:29:06;;;;;;;;;;;;;;;16.21;100.00;99311.31;5053513;28;937;-64
2023/05/29 02:31:33;;;;;;;;;;;;;;;16.19;100.00;99308.19;5053499;28;902;-62
2023/05/29 02:34:00;;;;;;;;;;;;;;;16.19;100.00;99305.41;5053339;28;1914;-61
2023/05/29 02:36:27;;;;;;;;;;;;;;;16.21;100.00;99311.31;5053418;28;840;-62
2023/05/29 02:38:54;;;;;;;;;;;;;;;16.21;100.00;99320.44;5053374;28;867;-63
2023/05/29 02:41:20;;;;;;;;;;;;;;;16.23;100.00;99328.38;5053282;28;861;-63
2023/05/29 02:43:47;;;;;;;;;;;;;;;16.25;100.00;99321.09;5053280;28;879;-63
2023/05/29 02:46:14;;;;;;;;;;;;;;;16.27;100.00;99320.66;5035299;28;1193;-62
2023/05/29 02:48:41;;;;;;;;;;;;;;;16.29;100.00;99329.34;5053179;28;879;-63
2023/05/29 02:51:08;;;;;;;;;;;;;;;16.29;100.00;99338.47;5053130;28;848;-63
2023/05/29 02:53:35;;;;;;;;;;;;;;;16.29;100.00;99341.28;5052960;28;1961;-63
2023/05/29 02:56:01;;;;;;;;;;;;;;;16.33;100.00;99349.53;5053030;28;835;-63
2023/05/29 02:58:29;;;;;;;;;;;;;;;16.37;100.00;99350.16;5053029;28;968;-63
2023/05/29 03:00:55;;;;;;;;;;;;;;;16.42;100.00;99352.38;5053098;28;898;-63
2023/05/29 03:03:22;;;;;;;;;;;;;;;16.43;100.00;99347.56;5053029;28;921;-63
2023/05/29 03:05:49;;;;;;;;;;;;;;;16.44;100.00;99361.06;5052884;28;831;-64
2023/05/29 03:08:17;;;;;;;;;;;;;;;16.47;100.00;99356.56;5034906;28;1410;-62
2023/05/29 03:10:47;;;;;;;;;;;;;;;16.49;100.00;99356.91;5052544;28;1402;-63
2023/05/29 03:13:14;;;;;;;;;;;;;;;16.51;100.00;99360.81;5052717;28;1976;-62
2023/05/29 03:15:41;;;;;;;;;;;;;;;16.54;100.00;99356.34;5052681;28;894;-62
2023/05/29 03:18:07;;;;;;;;;;;;;;;16.58;100.00;99372.94;5052524;28;905;-63
2023/05/29 03:20:35;;;;;;;;;;;;;;;16.59;100.00;99371.72;5052930;28;843;-64
2023/05/29 03:23:02;;;;;;;;;;;;;;;16.62;100.00;99374.38;5052376;28;867;-63
2023/05/29 03:25:29;;;;;;;;;;;;;;;16.67;100.00;99375.81;5052420;28;816;-64
2023/05/29 03:27:56;;;;;;;;;;;;;;;16.69;100.00;99371.31;5052287;28;835;-64
2023/05/29 03:30:23;;;;;;;;;;;;;;;16.72;100.00;99372.41;5052374;28;871;-64
2023/05/29 03:32:50;;;;;;;;;;;;;;;16.73;100.00;99363.59;5052524;28;1898;-63
2023/05/29 03:35:17;;;;;;;;;;;;;;;16.77;100.00;99373.84;5052229;28;910;-63
2023/05/29 03:37:44;;;;;;;;;;;;;;;16.77;100.00;99368.25;5052270;28;880;-63
2023/05/29 03:40:11;;;;;;;;;;;;;;;16.79;100.00;99360.22;5052079;28;864;-63
2023/05/29 03:42:38;;;;;;;;;;;;;;;16.84;100.00;99370.81;5052168;28;840;-63
2023/05/29 03:45:05;;;;;;;;;;;;;;;16.88;100.00;99368.69;5052038;28;824;-64
2023/05/29 03:47:32;;;;;;;;;;;;;;;16.93;100.00;99366.06;5052092;28;899;-63
2023/05/29 03:49:59;;;;;;;;;;;;;;;16.97;100.00;99362.38;5051939;28;856;-64
2023/05/29 03:52:28;;;;;;;;;;;;;;;17.00;100.00;99370.59;5051790;28;1898;-64
2023/05/29 03:54:55;;;;;;;;;;;;;;;17.02;100.00;99375.72;5052048;28;914;-62
2023/05/29 03:57:22;;;;;;;;;;;;;;;17.03;100.00;99369.69;5051840;28;815;-64
2023/05/29 03:59:48;;;;;;;;;;;;;;;17.06;100.00;99373.56;5051824;28;930;-62
2023/05/29 04:02:14;;;;;;;;;;;;;;;17.06;100.00;99365.19;5051729;28;930;-63
2023/05/29 04:04:40;;;;;;;;;;;;;;;17.09;100.00;99367.88;5051767;28;871;-64
2023/05/29 04:07:07;;;;;;;;;;;;;;;17.12;100.00;99369.72;5051749;28;852;-64
2023/05/29 04:09:33;;;;;;;;;;;;;;;17.16;100.00;99358.44;5051600;28;1337;-62
2023/05/29 04:12:02;;;;;;;;;;;;;;;17.21;100.00;99365.44;5051538;28;1985;-63
2023/05/29 04:14:29;;;;;;;;;;;;;;;17.21;100.00;99368.22;5051865;28;886;-63
2023/05/29 04:16:54;;;;;;;;;;;;;;;17.22;100.00;99376.16;5033623;28;1331;-63
2023/05/29 04:19:22;;;;;;;;;;;;;;;17.24;100.00;99379.25;5051576;28;883;-63
2023/05/29 04:21:48;;;;;;;;;;;;;;;17.28;100.00;99379.91;5051520;28;876;-63
2023/05/29 04:24:15;;;;;;;;;;;;;;;17.35;100.00;99381.63;5051508;28;887;-63
2023/05/29 04:26:43;;;;;;;;;;;;;;;17.45;100.00;99374.81;5051756;28;840;-63
2023/05/29 04:29:12;;;;;;;;;;;;;;;17.73;100.00;99375.72;5051405;28;926;-62
2023/05/29 04:31:40;;;;;;;;;;;;;;;17.93;100.00;99368.94;5033440;28;1419;-64
2023/05/29 04:34:07;;;;;;;;;;;;;;;18.08;100.00;99366.31;5051299;28;1944;-63
2023/05/29 04:36:38;;;;;;;;;;;;;;;18.15;100.00;99352.03;5051551;28;922;-63
2023/05/29 04:39:07;;;;;;;;;;;;;;;18.12;100.00;99355.75;5051489;28;843;-63
2023/05/29 04:41:35;;;;;;;;;;;;;;;17.90;100.00;99339.91;5033657;28;911;-62
2023/05/29 04:44:03;;;;;;;;;;;;;;;17.89;100.00;99354.34;5051265;28;989;-62
2023/05/29 04:46:30;;;;;;;;;;;;;;;17.93;100.00;99346.56;5051301;28;808;-63
2023/05/29 04:48:57;;;;;;;;;;;;;;;17.89;100.00;99348.75;5051269;28;901;-64
2023/05/29 04:51:24;;;;;;;;;;;;;;;17.91;100.00;99351.84;5051219;28;894;-64
2023/05/29 04:53:54;;;;;;;;;;;;;;;17.92;100.00;99347.78;5051420;28;1922;-64
2023/05/29 04:56:21;;;;;;;;;;;;;;;17.97;100.00;99347.19;5051263;28;902;-63
2023/05/29 04:58:48;;;;;;;;;;;;;;;18.00;100.00;99353.88;5051092;28;835;-64
2023/05/29 05:01:15;;;;;;;;;;;;;;;17.98;100.00;99345.94;5033270;28;1333;-63
2023/05/29 05:03:42;;;;;;;;;;;;;;;17.94;100.00;99346.13;5051069;28;978;-64
2023/05/29 05:06:08;;;;;;;;;;;;;;;17.94;100.00;99336.94;5051092;28;910;-64
2023/05/29 05:08:35;;;;;;;;;;;;;;;18.15;100.00;99343.63;5051192;28;919;-61
2023/05/29 05:11:02;;;;;;;;;;;;;;;18.26;100.00;99346.72;5050694;28;1221;-64
2023/05/29 05:13:29;;;;;;;;;;;;;;;18.21;100.00;99343.78;5050993;28;1914;-64
2023/05/29 05:15:56;;;;;;;;;;;;;;;18.09;100.00;99357.47;5051027;28;964;-63
2023/05/29 05:18:22;;;;;;;;;;;;;;;18.04;100.00;99360.88;5050978;28;891;-64
2023/05/29 05:20:50;;;;;;;;;;;;;;;18.09;100.00;99349.09;5050891;28;839;-62
2023/05/29 05:23:17;;;;;;;;;;;;;;;18.23;100.00;99341.31;5050920;28;883;-63
2023/05/29 05:25:43;;;;;;;;;;;;;;;18.38;100.00;99353.41;5050906;28;882;-64
2023/05/29 05:28:10;;;;;;;;;;;;;;;18.57;100.00;99354.97;5050954;28;992;-64
2023/05/29 10:09:58;;;;;;;;;;;;;;;20.66;100.00;99418.63;5596793;22;1481;-60
2023/05/29 10:12:27;;;;;;;;;;;;;;;20.94;100.00;99419.16;5033928;28;1930;-61
2023/05/29 10:14:59;;;;;;;;;;;;;;;21.30;100.00;99425.66;5034529;28;783;-61
2023/05/29 10:17:29;;;;;;;;;;;;;;;21.48;100.00;99430.28;5033925;28;827;-61
2023/05/29 10:19:58;;;;;;;;;;;;;;;21.80;100.00;99444.59;5033926;28;895;-61
2023/05/29 10:22:27;;;;;;;;;;;;;;;21.97;100.00;99434.34;5033902;28;906;-62
2023/05/29 10:24:56;;;;;;;;;;;;;;;21.66;100.00;99436.94;5033699;28;882;-62
2023/05/29 10:27:23;;;;;;;;;;;;;;;21.78;100.00;99439.44;5033774;28;823;-61
2023/05/29 10:29:54;;;;;;;;;;;;;;;22.25;100.00;99436.03;5033686;28;879;-61
2023/05/29 10:32:24;;;;;;;;;;;;;;;22.18;100.00;99443.59;5033576;28;1886;-64
2023/05/29 10:35:09;;;;;;;;;;;;;;;21.99;100.00;99434.63;5034112;28;851;-62
2023/05/29 10:37:40;;;;;;;;;;;;;;;22.28;100.00;99435.06;5032675;28;890;-62
2023/05/29 10:40:12;;;;;;;;;;;;;;;22.27;100.00;99428.63;5033667;28;835;-63
2023/05/29 10:42:44;;;;;;;;;;;;;;;21.75;100.00;99434.81;5033485;28;898;-63
2023/05/29 10:45:32;;;;;;;;;;;;;;;21.39;100.00;99425.53;5033414;28;867;-63
2023/05/29 10:48:08;;;;;;;;;;;;;;;21.34;100.00;99423.41;5019402;28;2325;-63
2023/05/29 10:50:39;;;;;;;;;;;;;;;21.88;100.00;99428.84;5033708;28;828;-63
2023/05/29 10:53:12;;;;;;;;;;;;;;;22.40;100.00;99422.63;5033203;28;1881;-65
2023/05/29 10:55:39;;;;;;;;;;;;;;;22.52;100.00;99424.31;5033157;28;842;-65
2023/05/29 10:58:09;;;;;;;;;;;;;;;22.89;100.00;99418.06;5033202;28;836;-64
2023/05/29 11:00:46;;;;;;;;;;;;;;;23.26;100.00;99414.59;5033090;28;820;-65
2023/05/29 11:03:18;;;;;;;;;;;;;;;23.06;100.00;99421.06;5033580;28;855;-63
2023/05/29 11:06:02;;;;;;;;;;;;;;;22.49;100.00;99411.25;5031735;28;1177;-66
2023/05/29 11:08:35;;;;;;;;;;;;;;;22.77;100.00;99419.22;5032900;28;1025;-64
2023/05/29 11:11:03;;;;;;;;;;;;;;;22.60;100.00;99424.69;5032639;28;1276;-64
2023/05/29 11:13:34;;;;;;;;;;;;;;;22.43;100.00;99416.03;5032877;28;2005;-65
2023/05/29 11:16:05;;;;;;;;;;;;;;;21.96;100.00;99420.78;5032800;28;835;-67
2023/05/29 11:18:32;;;;;;;;;;;;;;;21.57;100.00;99427.38;5032716;28;796;-65
2023/05/29 11:21:04;;;;;;;;;;;;;;;21.56;100.00;99425.81;5031431;28;1201;-64
2023/05/29 11:23:31;;;;;;;;;;;;;;;21.23;100.00;99422.44;5033055;28;835;-64
2023/05/29 11:25:59;;;;;;;;;;;;;;;21.15;100.00;99428.47;5032762;28;898;-64
2023/05/29 11:28:27;;;;;;;;;;;;;;;21.47;100.00;99420.31;5032543;28;867;-65
2023/05/29 11:30:55;;;;;;;;;;;;;;;21.73;100.00;99430.94;5031329;28;1308;-64
2023/05/29 11:33:27;;;;;;;;;;;;;;;21.21;100.00;99420.91;5032354;28;1886;-64
2023/05/29 11:35:57;;;;;;;;;;;;;;;21.00;100.00;99428.44;5032787;28;899;-64
2023/05/29 11:38:25;;;;;;;;;;;;;;;21.24;100.00;99410.72;5032270;28;868;-64
2023/05/29 11:40:54;;;;;;;;;;;;;;;21.16;100.00;99415.19;5032354;28;890;-64
2023/05/29 11:43:22;;;;;;;;;;;;;;;21.18;100.00;99424.66;5032443;28;903;-64
2023/05/29 11:45:48;;;;;;;;;;;;;;;21.60;100.00;99425.63;5032255;28;871;-63
2023/05/29 11:48:16;;;;;;;;;;;;;;;21.49;100.00;99419.84;5030602;28;1211;-65
2023/05/29 11:50:46;;;;;;;;;;;;;;;21.75;100.00;99412.31;5030893;28;1287;-65
2023/05/29 11:53:12;;;;;;;;;;;;;;;22.50;100.00;99428.91;5032035;28;1882;-64
2023/05/29 11:55:40;;;;;;;;;;;;;;;22.35;100.00;99420.53;5032119;28;871;-65
2023/05/29 11:58:07;;;;;;;;;;;;;;;22.16;100.00;99425.66;5032086;28;867;-65
2023/05/29 12:00:34;;;;;;;;;;;;;;;21.92;100.00;99420.22;5031968;28;906;-65
2023/05/29 12:03:04;;;;;;;;;;;;;;;21.58;100.00;99420.50;5032256;28;905;-64
2023/05/29 12:05:31;;;;;;;;;;;;;;;21.90;100.00;99417.13;5032143;28;807;-65
2023/05/29 12:08:01;;;;;;;;;;;;;;;22.55;100.00;99414.91;5031971;28;1069;-64
2023/05/29 12:10:28;;;;;;;;;;;;;;;22.77;100.00;99414.38;5031618;28;1553;-66
2023/05/29 12:12:59;;;;;;;;;;;;;;;22.77;100.00;99411.53;5031789;28;1978;-65
2023/05/29 12:15:26;;;;;;;;;;;;;;;22.02;100.00;99421.63;5031779;28;811;-65
2023/05/29 12:17:54;;;;;;;;;;;;;;;21.71;100.00;99428.59;5030471;28;1266;-65
2023/05/29 12:20:23;;;;;;;;;;;;;;;21.58;100.00;99419.72;5031764;28;808;-66
2023/05/29 12:22:50;;;;;;;;;;;;;;;21.68;100.00;99421.16;5031667;28;838;-65
2023/05/29 12:25:19;;;;;;;;;;;;;;;21.71;100.00;99408.91;5031666;28;863;-65
2023/05/29 12:27:46;;;;;;;;;;;;;;;21.86;100.00;99414.50;5031588;28;867;-64
2023/05/29 12:30:30;;;;;;;;;;;;;;;21.89;100.00;99421.97;5031618;28;811;-64
2023/05/29 12:32:59;;;;;;;;;;;;;;;21.66;100.00;99420.88;5031513;28;1956;-66
2023/05/29 12:35:27;;;;;;;;;;;;;;;21.53;100.00;99426.81;5031509;28;898;-66
2023/05/29 12:37:58;;;;;;;;;;;;;;;21.60;100.00;99417.19;5030126;28;1172;-66
2023/05/29 12:40:27;;;;;;;;;;;;;;;22.02;100.00;99418.81;5031474;28;816;-66
2023/05/29 12:42:58;;;;;;;;;;;;;;;22.34;100.00;99414.16;5031422;28;850;-66
2023/05/29 12:45:28;;;;;;;;;;;;;;;22.62;100.00;99414.47;5031563;28;816;-66
2023/05/29 12:47:55;;;;;;;;;;;;;;;22.98;100.00;99415.09;5031500;28;851;-65
2023/05/29 12:50:26;;;;;;;;;;;;;;;23.05;100.00;99410.31;5031368;28;859;-65
2023/05/29 12:52:56;;;;;;;;;;;;;;;23.18;100.00;99411.44;5030011;28;1889;-65
2023/05/29 12:55:24;;;;;;;;;;;;;;;23.23;100.00;99412.75;5031339;28;820;-65
2023/05/29 12:57:51;;;;;;;;;;;;;;;23.14;100.00;99407.31;5031261;28;877;-65
2023/05/29 13:00:19;;;;;;;;;;;;;;;22.91;100.00;99406.28;5033673;28;899;-63
2023/05/29 13:02:47;;;;;;;;;;;;;;;22.32;100.00;99404.63;5035313;28;867;-65
2023/05/29 13:05:15;;;;;;;;;;;;;;;21.71;100.00;99400.47;5035372;28;839;-65
2023/05/29 13:07:43;;;;;;;;;;;;;;;21.33;100.00;99409.84;5035118;28;823;-64
2023/05/29 13:10:10;;;;;;;;;;;;;;;21.04;100.00;99407.81;5035174;28;1287;-65
2023/05/29 13:12:37;;;;;;;;;;;;;;;20.66;100.00;99401.78;5035100;28;1910;-63
2023/05/29 13:15:04;;;;;;;;;;;;;;;20.58;100.00;99392.94;5035096;28;812;-67
2023/05/29 13:17:31;;;;;;;;;;;;;;;20.57;100.00;99399.03;5034975;28;871;-65
2023/05/29 13:19:57;;;;;;;;;;;;;;;20.67;100.00;99399.75;5035046;28;815;-66
2023/05/29 13:22:30;;;;;;;;;;;;;;;20.81;100.00;99393.38;5034956;28;867;-66
2023/05/29 13:24:59;;;;;;;;;;;;;;;20.78;100.00;99397.13;5035128;28;886;-64
2023/05/29 13:27:29;;;;;;;;;;;;;;;20.65;100.00;99407.88;5034923;28;882;-63
2023/05/29 13:29:56;;;;;;;;;;;;;;;20.38;100.00;99402.00;5034799;28;855;-64
2023/05/29 13:32:22;;;;;;;;;;;;;;;20.36;100.00;99412.91;5034707;28;1886;-66
2023/05/29 13:34:49;;;;;;;;;;;;;;;20.31;100.00;99413.59;5034890;28;823;-65
2023/05/29 13:37:16;;;;;;;;;;;;;;;20.50;100.00;99407.81;5034706;28;860;-65
2023/05/29 13:39:42;;;;;;;;;;;;;;;20.67;100.00;99408.19;5034700;28;843;-63
2023/05/29 13:42:09;;;;;;;;;;;;;;;20.55;100.00;99401.56;5034603;28;851;-64
2023/05/29 13:44:37;;;;;;;;;;;;;;;20.34;100.00;99406.25;5034669;28;887;-63
2023/05/29 13:47:03;;;;;;;;;;;;;;;20.18;100.00;99402.63;5034515;28;871;-65
2023/05/29 13:49:30;;;;;;;;;;;;;;;20.14;100.00;99401.22;5034428;28;893;-63
2023/05/29 13:51:57;;;;;;;;;;;;;;;19.96;100.00;99399.31;5034411;28;804;-63
2023/05/29 13:54:23;;;;;;;;;;;;;;;19.93;100.00;99391.88;5034374;28;1886;-65
2023/05/29 13:56:50;;;;;;;;;;;;;;;19.90;100.00;99384.41;5034357;28;875;-65
2023/05/29 13:59:17;;;;;;;;;;;;;;;19.95;100.00;99381.72;5034301;28;835;-65
2023/05/29 14:01:44;;;;;;;;;;;;;;;19.82;100.00;99383.97;5034188;28;822;-62
2023/05/29 14:04:11;;;;;;;;;;;;;;;19.78;100.00;99377.78;5034255;28;812;-65
2023/05/29 14:07:03;;;;;;;;;;;;;;;19.75;100.00;99362.69;5034193;28;898;-63
2023/05/29 14:09:30;;;;;;;;;;;;;;;19.80;100.00;99369.69;5034008;28;1376;-64
2023/05/29 14:11:58;;;;;;;;;;;;;;;19.76;100.00;99364.25;5032879;28;874;-66
2023/05/29 14:14:25;;;;;;;;;;;;;;;19.72;100.00;99362.88;5034011;28;1918;-66
2023/05/29 14:16:54;;;;;;;;;;;;;;;19.65;100.00;99358.38;5033872;28;895;-63
2023/05/29 14:19:21;;;;;;;;;;;;;;;19.54;100.00;99353.28;5033891;28;927;-66
2023/05/29 14:21:48;;;;;;;;;;;;;;;19.45;100.00;99353.31;5033891;28;863;-64
2023/05/29 14:24:15;;;;;;;;;;;;;;;19.40;100.00;99356.00;5033830;28;884;-63
2023/05/29 14:26:43;;;;;;;;;;;;;;;19.28;100.00;99343.75;5033766;28;910;-64
2023/05/29 14:29:11;;;;;;;;;;;;;;;19.27;100.00;99347.81;5033843;28;867;-64
2023/05/29 14:31:38;;;;;;;;;;;;;;;19.28;100.00;99347.31;5033682;28;879;-62
2023/05/29 14:34:05;;;;;;;;;;;;;;;19.27;100.00;99350.63;5033601;28;1894;-64
2023/05/29 14:36:31;;;;;;;;;;;;;;;19.20;100.00;99348.91;5032211;28;1467;-64
2023/05/29 14:38:58;;;;;;;;;;;;;;;19.13;100.00;99352.06;5032335;28;1366;-65
2023/05/29 14:41:25;;;;;;;;;;;;;;;19.10;100.00;99339.00;5033537;28;974;-62
2023/05/29 14:43:52;;;;;;;;;;;;;;;19.09;100.00;99343.81;5033435;28;824;-63
2023/05/29 14:46:18;;;;;;;;;;;;;;;19.10;100.00;99342.56;5033349;28;915;-63
2023/05/29 14:48:48;;;;;;;;;;;;;;;19.04;100.00;99338.84;5033394;28;812;-63
2023/05/29 14:51:16;;;;;;;;;;;;;;;19.07;100.00;99348.34;5033596;28;851;-63
2023/05/29 14:53:43;;;;;;;;;;;;;;;18.98;100.00;99340.75;5033164;28;1893;-62
2023/05/29 14:56:09;;;;;;;;;;;;;;;19.02;100.00;99335.75;5033287;28;864;-62
2023/05/29 14:58:35;;;;;;;;;;;;;;;18.97;100.00;99345.56;5033182;28;832;-64
2023/05/29 15:01:02;;;;;;;;;;;;;;;18.94;100.00;99349.31;5033101;28;851;-65
2023/05/29 15:03:29;;;;;;;;;;;;;;;19.02;100.00;99337.78;5033020;28;884;-63
2023/05/29 15:05:57;;;;;;;;;;;;;;;19.04;100.00;99338.84;5033010;28;843;-62
2023/05/29 15:08:22;;;;;;;;;;;;;;;19.06;100.00;99338.41;5033032;28;911;-61
2023/05/29 15:10:49;;;;;;;;;;;;;;;18.98;100.00;99335.13;5032679;28;1274;-66
2023/05/29 15:13:17;;;;;;;;;;;;;;;18.93;100.00;99333.75;5032890;28;1923;-62
2023/05/29 15:15:43;;;;;;;;;;;;;;;18.89;100.00;99337.97;5032801;28;832;-63
2023/05/29 15:18:10;;;;;;;;;;;;;;;18.86;100.00;99345.31;5032745;28;893;-62
2023/05/29 15:20:36;;;;;;;;;;;;;;;18.80;100.00;99338.78;5032755;28;855;-64
2023/05/29 15:23:03;;;;;;;;;;;;;;;18.77;100.00;99340.44;5032390;28;878;-62
2023/05/29 15:25:30;;;;;;;;;;;;;;;18.72;100.00;99354.31;5032655;28;877;-63
2023/05/29 15:27:58;;;;;;;;;;;;;;;18.70;100.00;99346.38;5032656;28;819;-63
2023/05/29 15:30:25;;;;;;;;;;;;;;;18.67;100.00;99354.94;5032649;28;844;-62
2023/05/29 15:32:52;;;;;;;;;;;;;;;18.62;100.00;99347.94;5032374;28;1894;-61
2023/05/29 15:35:19;;;;;;;;;;;;;;;18.66;100.00;99353.41;5032423;28;950;-62
2023/05/29 15:37:46;;;;;;;;;;;;;;;18.66;100.00;99367.38;5032445;28;879;-62
2023/05/29 15:40:13;;;;;;;;;;;;;;;18.71;100.00;99363.94;5032372;28;856;-63
2023/05/29 15:42:41;;;;;;;;;;;;;;;18.74;100.00;99369.41;5032329;28;891;-63
2023/05/29 15:45:08;;;;;;;;;;;;;;;18.76;100.00;99371.72;5032262;28;899;-61
2023/05/29 15:47:34;;;;;;;;;;;;;;;18.79;100.00;99375.63;5032351;28;811;-63
2023/05/29 15:50:01;;;;;;;;;;;;;;;18.76;100.00;99378.09;5032268;28;831;-62
2023/05/29 15:52:27;;;;;;;;;;;;;;;18.72;100.00;99373.91;5032091;28;1898;-63
2023/05/29 15:54:53;;;;;;;;;;;;;;;18.72;100.00;99383.09;5032136;28;815;-62
2023/05/29 15:57:20;;;;;;;;;;;;;;;18.70;100.00;99393.97;5032189;28;874;-64
2023/05/29 15:59:47;;;;;;;;;;;;;;;18.66;100.00;99389.78;5032009;28;795;-64
2023/05/29 16:02:14;;;;;;;;;;;;;;;18.62;100.00;99389.16;5032063;28;820;-62
2023/05/29 16:04:40;;;;;;;;;;;;;;;18.56;100.00;99397.41;5031855;28;859;-64
2023/05/29 16:07:07;;;;;;;;;;;;;;;18.53;100.00;99395.53;5031922;28;857;-62
2023/05/29 16:09:34;;;;;;;;;;;;;;;18.52;100.00;99397.56;5031823;28;1190;-63
2023/05/29 16:12:02;;;;;;;;;;;;;;;18.52;100.00;99402.38;5031833;28;859;-63
2023/05/29 16:14:28;;;;;;;;;;;;;;;18.52;100.00;99399.56;5031701;28;1917;-63
2023/05/29 16:16:56;;;;;;;;;;;;;;;18.53;100.00;99401.13;5031831;28;812;-62
2023/05/29 16:19:27;;;;;;;;;;;;;;;18.50;100.00;99405.66;5031742;28;816;-62
2023/05/29 16:21:54;;;;;;;;;;;;;;;18.47;100.00;99400.97;5031696;28;839;-63
2023/05/29 16:24:21;;;;;;;;;;;;;;;18.47;100.00;99406.56;5031951;28;851;-63
2023/05/29 16:26:48;;;;;;;;;;;;;;;18.48;100.00;99412.97;5031736;28;894;-61
2023/05/29 16:29:15;;;;;;;;;;;;;;;18.45;100.00;99406.25;5031583;28;858;-63
2023/05/29 16:31:42;;;;;;;;;;;;;;;18.44;100.00;99403.94;5031629;28;879;-63
2023/05/29 16:34:09;;;;;;;;;;;;;;;18.43;100.00;99396.78;5030648;28;1890;-62
2023/05/29 16:36:36;;;;;;;;;;;;;;;18.41;100.00;99402.06;5031859;28;898;-63
2023/05/29 16:39:02;;;;;;;;;;;;;;;18.41;100.00;99393.66;5031444;28;910;-64
2023/05/29 16:41:29;;;;;;;;;;;;;;;18.38;100.00;99394.63;5031558;28;891;-64
2023/05/29 16:43:55;;;;;;;;;;;;;;;18.35;100.00;99397.09;5031464;28;890;-63
2023/05/29 16:46:23;;;;;;;;;;;;;;;18.35;100.00;99397.09;5031381;28;872;-63
2023/05/29 16:48:49;;;;;;;;;;;;;;;18.32;100.00;99398.03;5031486;28;832;-64
2023/05/29 16:51:16;;;;;;;;;;;;;;;18.32;100.00;99400.03;5031428;28;879;-63
2023/05/29 16:53:43;;;;;;;;;;;;;;;18.28;100.00;99394.59;5031298;28;1911;-63
2023/05/29 16:56:10;;;;;;;;;;;;;;;18.23;100.00;99400.81;5031384;28;816;-63
2023/05/29 16:58:36;;;;;;;;;;;;;;;18.20;100.00;99410.16;5031359;28;903;-61
2023/05/29 17:01:03;;;;;;;;;;;;;;;18.16;100.00;99403.94;5031312;28;915;-63
2023/05/29 17:03:30;;;;;;;;;;;;;;;18.14;100.00;99393.19;5031252;28;871;-62
2023/05/29 17:05:56;;;;;;;;;;;;;;;18.12;100.00;99400.50;5031299;28;816;-62
2023/05/29 17:08:22;;;;;;;;;;;;;;;18.10;100.00;99400.19;5031262;28;928;-62
2023/05/29 17:10:49;;;;;;;;;;;;;;;18.09;100.00;99393.03;5031063;28;1181;-63
2023/05/29 17:13:16;;;;;;;;;;;;;;;18.05;100.00;99398.78;5031126;28;1914;-62
2023/05/29 17:15:43;;;;;;;;;;;;;;;18.05;100.00;99400.78;5031209;28;946;-63
2023/05/29 17:18:10;;;;;;;;;;;;;;;18.02;100.00;99404.53;5031138;28;828;-62
2023/05/29 17:20:36;;;;;;;;;;;;;;;18.02;100.00;99407.31;5031118;28;867;-62
2023/05/29 17:23:03;;;;;;;;;;;;;;;17.99;100.00;99411.81;5031039;28;1038;-63
2023/05/29 17:25:29;;;;;;;;;;;;;;;17.98;100.00;99407.47;5031307;28;844;-62
2023/05/29 17:27:57;;;;;;;;;;;;;;;17.97;100.00;99417.09;5031096;28;867;-63
2023/05/29 17:30:25;;;;;;;;;;;;;;;17.99;100.00;99422.22;5030990;28;920;-62
2023/05/29 17:32:52;;;;;;;;;;;;;;;17.99;100.00;99419.41;5030789;28;1945;-62
2023/05/29 17:35:18;;;;;;;;;;;;;;;17.98;100.00;99421.44;5031092;28;816;-63
2023/05/29 17:37:45;;;;;;;;;;;;;;;17.99;100.00;99422.22;5031223;28;796;-63